sensor_id;sensor_type;location;lat;lon;timestamp;P1;durP1;ratioP1;P2;durP2;ratioP2
72439;SDS011;60446;50.752;4.352;2024-02-21T00:01:21;15.63;;;5.63;;
72439;SDS011;60446;50.752;4.352;2024-02-21T00:03:49;17.35;;;6.22;;
72439;SDS011;60446;50.752;4.352;2024-02-21T00:06:16;19.67;;;6.45;;
72439;SDS011;60446;50.752;4.352;2024-02-21T00:08:44;19.77;;;6.10;;
72439;SDS011;60446;50.752;4.352;2024-02-21T00:11:12;19.63;;;6.70;;
72439;SDS011;60446;50.752;4.352;2024-02-21T00:13:39;18.53;;;5.90;;
72439;SDS011;60446;50.752;4.352;2024-02-21T00:16:06;17.35;;;6.80;;
72439;SDS011;60446;50.752;4.352;2024-02-21T00:18:34;17.58;;;6.20;;
72439;SDS011;60446;50.752;4.352;2024-02-21T00:21:01;19.67;;;5.88;;
72439;SDS011;60446;50.752;4.352;2024-02-21T00:23:29;19.63;;;5.78;;
72439;SDS011;60446;50.752;4.352;2024-02-21T00:25:57;19.07;;;6.10;;
72439;SDS011;60446;50.752;4.352;2024-02-21T00:28:25;19.58;;;5.97;;
72439;SDS011;60446;50.752;4.352;2024-02-21T00:30:52;17.88;;;6.43;;
72439;SDS011;60446;50.752;4.352;2024-02-21T00:33:21;19.70;;;5.80;;
72439;SDS011;60446;50.752;4.352;2024-02-21T00:35:48;17.15;;;6.05;;
72439;SDS011;60446;50.752;4.352;2024-02-21T00:38:16;17.63;;;6.63;;
72439;SDS011;60446;50.752;4.352;2024-02-21T00:40:44;20.10;;;6.07;;
72439;SDS011;60446;50.752;4.352;2024-02-21T00:43:11;18.48;;;6.90;;
72439;SDS011;60446;50.752;4.352;2024-02-21T00:45:39;16.65;;;6.90;;
72439;SDS011;60446;50.752;4.352;2024-02-21T00:48:06;18.98;;;6.18;;
72439;SDS011;60446;50.752;4.352;2024-02-21T00:50:33;17.17;;;5.90;;
72439;SDS011;60446;50.752;4.352;2024-02-21T00:53:00;20.63;;;6.53;;
72439;SDS011;60446;50.752;4.352;2024-02-21T00:55:28;18.70;;;6.57;;
72439;SDS011;60446;50.752;4.352;2024-02-21T00:57:55;15.27;;;6.53;;
72439;SDS011;60446;50.752;4.352;2024-02-21T01:00:23;19.05;;;7.25;;
72439;SDS011;60446;50.752;4.352;2024-02-21T01:02:50;16.37;;;6.87;;
72439;SDS011;60446;50.752;4.352;2024-02-21T01:05:19;16.92;;;6.22;;
72439;SDS011;60446;50.752;4.352;2024-02-21T01:07:46;17.63;;;6.47;;
72439;SDS011;60446;50.752;4.352;2024-02-21T01:10:14;16.33;;;6.13;;
72439;SDS011;60446;50.752;4.352;2024-02-21T01:12:41;12.98;;;6.72;;
72439;SDS011;60446;50.752;4.352;2024-02-21T01:15:08;17.10;;;6.37;;
72439;SDS011;60446;50.752;4.352;2024-02-21T01:17:36;17.85;;;6.93;;
72439;SDS011;60446;50.752;4.352;2024-02-21T01:20:04;18.90;;;6.80;;
72439;SDS011;60446;50.752;4.352;2024-02-21T01:22:33;17.95;;;7.22;;
72439;SDS011;60446;50.752;4.352;2024-02-21T01:25:00;17.42;;;6.30;;
72439;SDS011;60446;50.752;4.352;2024-02-21T01:27:28;22.47;;;6.73;;
72439;SDS011;60446;50.752;4.352;2024-02-21T01:29:55;14.95;;;5.93;;
72439;SDS011;60446;50.752;4.352;2024-02-21T01:32:22;21.83;;;6.55;;
72439;SDS011;60446;50.752;4.352;2024-02-21T01:34:51;18.60;;;7.78;;
72439;SDS011;60446;50.752;4.352;2024-02-21T01:37:18;19.20;;;7.05;;
72439;SDS011;60446;50.752;4.352;2024-02-21T01:39:48;20.03;;;6.47;;
72439;SDS011;60446;50.752;4.352;2024-02-21T01:42:16;20.17;;;7.20;;
72439;SDS011;60446;50.752;4.352;2024-02-21T01:44:43;14.80;;;6.80;;
72439;SDS011;60446;50.752;4.352;2024-02-21T01:47:10;15.07;;;6.60;;
72439;SDS011;60446;50.752;4.352;2024-02-21T01:49:40;22.10;;;6.10;;
72439;SDS011;60446;50.752;4.352;2024-02-21T01:52:08;13.23;;;6.10;;
72439;SDS011;60446;50.752;4.352;2024-02-21T01:54:38;17.17;;;6.18;;
72439;SDS011;60446;50.752;4.352;2024-02-21T01:57:06;15.38;;;6.10;;
72439;SDS011;60446;50.752;4.352;2024-02-21T01:59:33;20.00;;;5.88;;
72439;SDS011;60446;50.752;4.352;2024-02-21T02:02:02;14.95;;;5.18;;
72439;SDS011;60446;50.752;4.352;2024-02-21T02:04:30;15.70;;;5.87;;
72439;SDS011;60446;50.752;4.352;2024-02-21T02:06:57;19.15;;;5.70;;
72439;SDS011;60446;50.752;4.352;2024-02-21T02:09:27;14.68;;;5.95;;
72439;SDS011;60446;50.752;4.352;2024-02-21T02:11:55;13.70;;;5.40;;
72439;SDS011;60446;50.752;4.352;2024-02-21T02:14:25;17.13;;;5.93;;
72439;SDS011;60446;50.752;4.352;2024-02-21T02:16:52;20.87;;;5.50;;
72439;SDS011;60446;50.752;4.352;2024-02-21T02:19:19;15.10;;;5.72;;
72439;SDS011;60446;50.752;4.352;2024-02-21T02:21:49;16.30;;;5.60;;
72439;SDS011;60446;50.752;4.352;2024-02-21T02:24:23;15.90;;;4.53;;
72439;SDS011;60446;50.752;4.352;2024-02-21T02:26:54;14.63;;;5.60;;
72439;SDS011;60446;50.752;4.352;2024-02-21T02:29:21;16.30;;;5.80;;
72439;SDS011;60446;50.752;4.352;2024-02-21T02:31:49;16.08;;;6.13;;
72439;SDS011;60446;50.752;4.352;2024-02-21T02:34:17;15.18;;;5.32;;
72439;SDS011;60446;50.752;4.352;2024-02-21T02:36:44;15.00;;;5.40;;
72439;SDS011;60446;50.752;4.352;2024-02-21T02:39:11;15.10;;;5.28;;
72439;SDS011;60446;50.752;4.352;2024-02-21T02:41:38;21.13;;;6.00;;
72439;SDS011;60446;50.752;4.352;2024-02-21T02:44:06;16.95;;;5.38;;
72439;SDS011;60446;50.752;4.352;2024-02-21T02:46:33;15.02;;;5.75;;
72439;SDS011;60446;50.752;4.352;2024-02-21T02:49:00;13.98;;;5.93;;
72439;SDS011;60446;50.752;4.352;2024-02-21T02:51:29;13.75;;;5.15;;
72439;SDS011;60446;50.752;4.352;2024-02-21T02:53:57;12.23;;;5.07;;
72439;SDS011;60446;50.752;4.352;2024-02-21T02:56:24;17.65;;;6.05;;
72439;SDS011;60446;50.752;4.352;2024-02-21T02:58:51;15.18;;;5.35;;
72439;SDS011;60446;50.752;4.352;2024-02-21T03:01:19;13.88;;;5.30;;
72439;SDS011;60446;50.752;4.352;2024-02-21T03:03:47;17.00;;;5.57;;
72439;SDS011;60446;50.752;4.352;2024-02-21T03:06:14;15.93;;;5.67;;
72439;SDS011;60446;50.752;4.352;2024-02-21T03:08:42;16.55;;;5.50;;
72439;SDS011;60446;50.752;4.352;2024-02-21T03:11:09;16.17;;;5.50;;
72439;SDS011;60446;50.752;4.352;2024-02-21T03:13:37;17.45;;;6.35;;
72439;SDS011;60446;50.752;4.352;2024-02-21T03:16:05;13.88;;;5.82;;
72439;SDS011;60446;50.752;4.352;2024-02-21T03:18:32;15.60;;;5.67;;
72439;SDS011;60446;50.752;4.352;2024-02-21T03:21:00;13.98;;;6.00;;
72439;SDS011;60446;50.752;4.352;2024-02-21T03:23:27;18.25;;;6.15;;
72439;SDS011;60446;50.752;4.352;2024-02-21T03:25:54;13.85;;;6.35;;
72439;SDS011;60446;50.752;4.352;2024-02-21T03:28:22;21.83;;;6.22;;
72439;SDS011;60446;50.752;4.352;2024-02-21T03:30:49;13.23;;;6.30;;
72439;SDS011;60446;50.752;4.352;2024-02-21T03:33:16;17.30;;;6.55;;
72439;SDS011;60446;50.752;4.352;2024-02-21T03:35:44;17.27;;;6.65;;
72439;SDS011;60446;50.752;4.352;2024-02-21T03:38:11;18.65;;;6.18;;
72439;SDS011;60446;50.752;4.352;2024-02-21T03:40:38;14.77;;;6.45;;
72439;SDS011;60446;50.752;4.352;2024-02-21T03:43:05;14.03;;;6.03;;
72439;SDS011;60446;50.752;4.352;2024-02-21T03:45:32;22.52;;;6.57;;
72439;SDS011;60446;50.752;4.352;2024-02-21T03:48:00;18.00;;;6.03;;
72439;SDS011;60446;50.752;4.352;2024-02-21T03:50:27;16.63;;;6.20;;
72439;SDS011;60446;50.752;4.352;2024-02-21T03:52:56;17.83;;;7.32;;
72439;SDS011;60446;50.752;4.352;2024-02-21T03:55:23;14.40;;;6.17;;
72439;SDS011;60446;50.752;4.352;2024-02-21T03:57:50;14.05;;;5.85;;
72439;SDS011;60446;50.752;4.352;2024-02-21T04:00:18;19.48;;;6.72;;
72439;SDS011;60446;50.752;4.352;2024-02-21T04:02:45;14.05;;;5.75;;
72439;SDS011;60446;50.752;4.352;2024-02-21T04:05:15;20.27;;;7.32;;
72439;SDS011;60446;50.752;4.352;2024-02-21T04:07:42;16.07;;;6.10;;
72439;SDS011;60446;50.752;4.352;2024-02-21T04:10:10;19.58;;;6.30;;
72439;SDS011;60446;50.752;4.352;2024-02-21T04:12:38;16.48;;;7.60;;
72439;SDS011;60446;50.752;4.352;2024-02-21T04:15:05;17.17;;;6.05;;
72439;SDS011;60446;50.752;4.352;2024-02-21T04:17:33;16.63;;;6.32;;
72439;SDS011;60446;50.752;4.352;2024-02-21T04:20:02;16.07;;;6.23;;
72439;SDS011;60446;50.752;4.352;2024-02-21T04:22:35;18.58;;;6.32;;
72439;SDS011;60446;50.752;4.352;2024-02-21T04:25:02;16.83;;;6.03;;
72439;SDS011;60446;50.752;4.352;2024-02-21T04:27:30;16.05;;;5.85;;
72439;SDS011;60446;50.752;4.352;2024-02-21T04:29:57;14.75;;;6.55;;
72439;SDS011;60446;50.752;4.352;2024-02-21T04:32:24;22.07;;;5.63;;
72439;SDS011;60446;50.752;4.352;2024-02-21T04:34:54;16.75;;;6.10;;
72439;SDS011;60446;50.752;4.352;2024-02-21T04:37:21;18.85;;;6.88;;
72439;SDS011;60446;50.752;4.352;2024-02-21T04:39:49;18.27;;;5.88;;
72439;SDS011;60446;50.752;4.352;2024-02-21T04:42:16;13.77;;;6.15;;
72439;SDS011;60446;50.752;4.352;2024-02-21T04:44:44;18.53;;;6.27;;
72439;SDS011;60446;50.752;4.352;2024-02-21T04:47:11;16.83;;;6.38;;
72439;SDS011;60446;50.752;4.352;2024-02-21T04:49:39;17.48;;;6.32;;
72439;SDS011;60446;50.752;4.352;2024-02-21T04:52:06;18.35;;;6.78;;
72439;SDS011;60446;50.752;4.352;2024-02-21T04:54:34;18.05;;;6.50;;
72439;SDS011;60446;50.752;4.352;2024-02-21T04:57:04;11.77;;;5.03;;
72439;SDS011;60446;50.752;4.352;2024-02-21T04:59:31;16.95;;;6.40;;
72439;SDS011;60446;50.752;4.352;2024-02-21T05:02:00;14.40;;;5.13;;
72439;SDS011;60446;50.752;4.352;2024-02-21T05:04:27;15.32;;;6.10;;
72439;SDS011;60446;50.752;4.352;2024-02-21T05:06:54;11.60;;;5.47;;
72439;SDS011;60446;50.752;4.352;2024-02-21T05:09:21;12.97;;;5.47;;
72439;SDS011;60446;50.752;4.352;2024-02-21T05:11:49;15.05;;;5.85;;
72439;SDS011;60446;50.752;4.352;2024-02-21T05:14:16;14.30;;;5.78;;
72439;SDS011;60446;50.752;4.352;2024-02-21T05:16:43;14.20;;;5.05;;
72439;SDS011;60446;50.752;4.352;2024-02-21T05:19:11;12.35;;;5.15;;
72439;SDS011;60446;50.752;4.352;2024-02-21T05:21:38;15.50;;;5.57;;
72439;SDS011;60446;50.752;4.352;2024-02-21T05:24:05;14.18;;;5.28;;
72439;SDS011;60446;50.752;4.352;2024-02-21T05:26:32;12.55;;;5.15;;
72439;SDS011;60446;50.752;4.352;2024-02-21T05:29:00;13.60;;;4.40;;
72439;SDS011;60446;50.752;4.352;2024-02-21T05:34:18;9.27;;;4.37;;
72439;SDS011;60446;50.752;4.352;2024-02-21T05:36:46;11.65;;;4.57;;
72439;SDS011;60446;50.752;4.352;2024-02-21T05:39:14;11.23;;;4.35;;
72439;SDS011;60446;50.752;4.352;2024-02-21T05:41:41;12.52;;;4.20;;
72439;SDS011;60446;50.752;4.352;2024-02-21T05:44:10;9.40;;;4.60;;
72439;SDS011;60446;50.752;4.352;2024-02-21T05:46:37;11.50;;;4.20;;
72439;SDS011;60446;50.752;4.352;2024-02-21T05:49:04;18.23;;;5.10;;
72439;SDS011;60446;50.752;4.352;2024-02-21T05:51:34;10.52;;;4.53;;
72439;SDS011;60446;50.752;4.352;2024-02-21T05:54:01;10.50;;;4.28;;
72439;SDS011;60446;50.752;4.352;2024-02-21T05:56:29;12.63;;;5.03;;
72439;SDS011;60446;50.752;4.352;2024-02-21T05:58:56;11.70;;;4.30;;
72439;SDS011;60446;50.752;4.352;2024-02-21T06:01:24;9.77;;;3.58;;
72439;SDS011;60446;50.752;4.352;2024-02-21T06:03:52;9.30;;;4.25;;
72439;SDS011;60446;50.752;4.352;2024-02-21T06:06:19;9.15;;;4.07;;
72439;SDS011;60446;50.752;4.352;2024-02-21T06:08:48;9.85;;;4.25;;
72439;SDS011;60446;50.752;4.352;2024-02-21T06:11:16;9.37;;;4.20;;
72439;SDS011;60446;50.752;4.352;2024-02-21T06:13:46;8.18;;;3.55;;
72439;SDS011;60446;50.752;4.352;2024-02-21T06:16:13;11.70;;;4.32;;
72439;SDS011;60446;50.752;4.352;2024-02-21T06:18:40;10.60;;;4.47;;
72439;SDS011;60446;50.752;4.352;2024-02-21T06:21:07;12.20;;;4.63;;
72439;SDS011;60446;50.752;4.352;2024-02-21T06:23:36;10.53;;;4.33;;
72439;SDS011;60446;50.752;4.352;2024-02-21T06:26:03;11.38;;;4.30;;
72439;SDS011;60446;50.752;4.352;2024-02-21T06:28:31;10.10;;;4.40;;
72439;SDS011;60446;50.752;4.352;2024-02-21T06:30:58;12.00;;;4.60;;
72439;SDS011;60446;50.752;4.352;2024-02-21T06:33:25;9.90;;;4.63;;
72439;SDS011;60446;50.752;4.352;2024-02-21T06:35:53;15.47;;;4.80;;
72439;SDS011;60446;50.752;4.352;2024-02-21T06:38:20;12.77;;;4.75;;
72439;SDS011;60446;50.752;4.352;2024-02-21T06:40:47;8.95;;;4.65;;
72439;SDS011;60446;50.752;4.352;2024-02-21T06:43:20;12.93;;;4.50;;
72439;SDS011;60446;50.752;4.352;2024-02-21T06:45:48;10.02;;;4.50;;
72439;SDS011;60446;50.752;4.352;2024-02-21T06:48:18;11.33;;;4.40;;
72439;SDS011;60446;50.752;4.352;2024-02-21T06:50:46;9.13;;;4.22;;
72439;SDS011;60446;50.752;4.352;2024-02-21T06:53:13;10.93;;;5.18;;
72439;SDS011;60446;50.752;4.352;2024-02-21T06:55:41;11.75;;;4.53;;
72439;SDS011;60446;50.752;4.352;2024-02-21T06:58:08;10.73;;;4.68;;
72439;SDS011;60446;50.752;4.352;2024-02-21T07:00:38;14.07;;;5.00;;
72439;SDS011;60446;50.752;4.352;2024-02-21T07:03:07;12.52;;;4.72;;
72439;SDS011;60446;50.752;4.352;2024-02-21T07:05:34;12.38;;;5.13;;
72439;SDS011;60446;50.752;4.352;2024-02-21T07:08:01;12.63;;;4.18;;
72439;SDS011;60446;50.752;4.352;2024-02-21T07:10:30;10.52;;;4.93;;
72439;SDS011;60446;50.752;4.352;2024-02-21T07:12:59;13.63;;;5.43;;
72439;SDS011;60446;50.752;4.352;2024-02-21T07:15:26;17.33;;;5.35;;
72439;SDS011;60446;50.752;4.352;2024-02-21T07:17:55;11.15;;;5.60;;
72439;SDS011;60446;50.752;4.352;2024-02-21T07:20:22;13.60;;;5.25;;
72439;SDS011;60446;50.752;4.352;2024-02-21T07:22:50;12.18;;;5.40;;
72439;SDS011;60446;50.752;4.352;2024-02-21T07:25:17;15.33;;;5.17;;
72439;SDS011;60446;50.752;4.352;2024-02-21T07:27:44;11.85;;;5.45;;
72439;SDS011;60446;50.752;4.352;2024-02-21T07:30:12;12.23;;;5.35;;
72439;SDS011;60446;50.752;4.352;2024-02-21T07:32:43;11.10;;;4.88;;
72439;SDS011;60446;50.752;4.352;2024-02-21T07:35:10;15.50;;;5.90;;
72439;SDS011;60446;50.752;4.352;2024-02-21T07:37:38;16.87;;;5.23;;
72439;SDS011;60446;50.752;4.352;2024-02-21T07:40:06;11.02;;;5.43;;
72439;SDS011;60446;50.752;4.352;2024-02-21T07:42:39;13.73;;;5.72;;
72439;SDS011;60446;50.752;4.352;2024-02-21T07:45:07;13.95;;;5.32;;
72439;SDS011;60446;50.752;4.352;2024-02-21T07:47:35;10.65;;;5.22;;
72439;SDS011;60446;50.752;4.352;2024-02-21T07:50:03;13.00;;;4.83;;
72439;SDS011;60446;50.752;4.352;2024-02-21T07:52:32;11.40;;;5.00;;
72439;SDS011;60446;50.752;4.352;2024-02-21T07:55:01;11.27;;;4.60;;
72439;SDS011;60446;50.752;4.352;2024-02-21T07:57:29;12.80;;;4.80;;
72439;SDS011;60446;50.752;4.352;2024-02-21T07:59:57;13.80;;;5.50;;
72439;SDS011;60446;50.752;4.352;2024-02-21T08:02:24;10.67;;;5.97;;
72439;SDS011;60446;50.752;4.352;2024-02-21T08:04:51;12.35;;;5.45;;
72439;SDS011;60446;50.752;4.352;2024-02-21T08:07:19;10.30;;;5.43;;
72439;SDS011;60446;50.752;4.352;2024-02-21T08:09:46;11.68;;;4.38;;
72439;SDS011;60446;50.752;4.352;2024-02-21T08:12:13;12.25;;;5.22;;
72439;SDS011;60446;50.752;4.352;2024-02-21T08:14:40;14.87;;;5.37;;
72439;SDS011;60446;50.752;4.352;2024-02-21T08:17:08;9.88;;;4.45;;
72439;SDS011;60446;50.752;4.352;2024-02-21T08:19:35;10.20;;;3.88;;
72439;SDS011;60446;50.752;4.352;2024-02-21T08:22:03;15.23;;;5.00;;
72439;SDS011;60446;50.752;4.352;2024-02-21T08:24:30;18.45;;;5.55;;
72439;SDS011;60446;50.752;4.352;2024-02-21T08:26:57;8.40;;;3.97;;
72439;SDS011;60446;50.752;4.352;2024-02-21T08:29:25;10.45;;;4.25;;
72439;SDS011;60446;50.752;4.352;2024-02-21T08:31:53;11.43;;;4.45;;
72439;SDS011;60446;50.752;4.352;2024-02-21T08:34:22;13.80;;;4.65;;
72439;SDS011;60446;50.752;4.352;2024-02-21T08:36:50;8.75;;;4.18;;
72439;SDS011;60446;50.752;4.352;2024-02-21T08:39:17;10.23;;;4.27;;
72439;SDS011;60446;50.752;4.352;2024-02-21T08:41:44;9.25;;;4.15;;
72439;SDS011;60446;50.752;4.352;2024-02-21T08:44:27;9.65;;;4.70;;
72439;SDS011;60446;50.752;4.352;2024-02-21T08:46:55;9.45;;;3.60;;
72439;SDS011;60446;50.752;4.352;2024-02-21T08:49:23;8.25;;;4.07;;
72439;SDS011;60446;50.752;4.352;2024-02-21T08:51:59;11.30;;;3.80;;
72439;SDS011;60446;50.752;4.352;2024-02-21T08:54:28;15.23;;;3.97;;
72439;SDS011;60446;50.752;4.352;2024-02-21T08:56:55;9.23;;;3.95;;
72439;SDS011;60446;50.752;4.352;2024-02-21T08:59:23;11.50;;;4.07;;
72439;SDS011;60446;50.752;4.352;2024-02-21T09:01:52;10.10;;;3.80;;
72439;SDS011;60446;50.752;4.352;2024-02-21T09:04:20;9.33;;;3.43;;
72439;SDS011;60446;50.752;4.352;2024-02-21T09:06:47;7.43;;;3.78;;
72439;SDS011;60446;50.752;4.352;2024-02-21T09:09:14;9.98;;;3.78;;
72439;SDS011;60446;50.752;4.352;2024-02-21T09:11:42;8.45;;;3.50;;
72439;SDS011;60446;50.752;4.352;2024-02-21T09:14:11;8.77;;;3.70;;
72439;SDS011;60446;50.752;4.352;2024-02-21T09:16:38;9.60;;;3.60;;
72439;SDS011;60446;50.752;4.352;2024-02-21T09:19:05;11.80;;;3.85;;
72439;SDS011;60446;50.752;4.352;2024-02-21T09:21:33;11.40;;;4.15;;
72439;SDS011;60446;50.752;4.352;2024-02-21T09:24:00;9.60;;;4.05;;
72439;SDS011;60446;50.752;4.352;2024-02-21T09:26:29;9.65;;;3.38;;
72439;SDS011;60446;50.752;4.352;2024-02-21T09:28:56;8.17;;;3.73;;
72439;SDS011;60446;50.752;4.352;2024-02-21T09:31:23;10.50;;;3.38;;
72439;SDS011;60446;50.752;4.352;2024-02-21T09:33:51;8.02;;;3.65;;
72439;SDS011;60446;50.752;4.352;2024-02-21T09:36:18;8.32;;;3.40;;
72439;SDS011;60446;50.752;4.352;2024-02-21T09:38:46;9.35;;;3.70;;
72439;SDS011;60446;50.752;4.352;2024-02-21T09:41:22;7.63;;;3.60;;
72439;SDS011;60446;50.752;4.352;2024-02-21T09:43:54;12.95;;;3.72;;
72439;SDS011;60446;50.752;4.352;2024-02-21T09:46:30;8.82;;;4.07;;
72439;SDS011;60446;50.752;4.352;2024-02-21T09:49:30;7.32;;;3.33;;
72439;SDS011;60446;50.752;4.352;2024-02-21T09:52:00;10.00;;;4.20;;
72439;SDS011;60446;50.752;4.352;2024-02-21T09:54:33;7.33;;;3.03;;
72439;SDS011;60446;50.752;4.352;2024-02-21T09:57:01;6.53;;;3.33;;
72439;SDS011;60446;50.752;4.352;2024-02-21T09:59:32;8.52;;;4.13;;
72439;SDS011;60446;50.752;4.352;2024-02-21T10:02:00;6.72;;;3.38;;
72439;SDS011;60446;50.752;4.352;2024-02-21T10:04:29;7.18;;;3.53;;
72439;SDS011;60446;50.752;4.352;2024-02-21T10:06:59;7.67;;;3.13;;
72439;SDS011;60446;50.752;4.352;2024-02-21T10:09:29;7.63;;;3.72;;
72439;SDS011;60446;50.752;4.352;2024-02-21T10:12:07;6.53;;;3.13;;
72439;SDS011;60446;50.752;4.352;2024-02-21T10:14:39;6.60;;;3.20;;
72439;SDS011;60446;50.752;4.352;2024-02-21T10:17:08;8.98;;;4.30;;
72439;SDS011;60446;50.752;4.352;2024-02-21T10:19:44;9.37;;;3.17;;
72439;SDS011;60446;50.752;4.352;2024-02-21T10:22:14;6.80;;;3.70;;
72439;SDS011;60446;50.752;4.352;2024-02-21T10:24:44;8.80;;;4.03;;
72439;SDS011;60446;50.752;4.352;2024-02-21T10:27:12;7.47;;;3.03;;
72439;SDS011;60446;50.752;4.352;2024-02-21T10:29:40;7.72;;;3.47;;
72439;SDS011;60446;50.752;4.352;2024-02-21T10:32:09;6.37;;;3.00;;
72439;SDS011;60446;50.752;4.352;2024-02-21T10:34:41;7.18;;;4.00;;
72439;SDS011;60446;50.752;4.352;2024-02-21T10:37:10;8.48;;;3.67;;
72439;SDS011;60446;50.752;4.352;2024-02-21T10:39:39;9.00;;;3.55;;
72439;SDS011;60446;50.752;4.352;2024-02-21T10:42:10;11.70;;;3.90;;
72439;SDS011;60446;50.752;4.352;2024-02-21T10:44:40;7.53;;;3.13;;
72439;SDS011;60446;50.752;4.352;2024-02-21T10:47:09;8.55;;;4.03;;
72439;SDS011;60446;50.752;4.352;2024-02-21T10:49:40;8.73;;;3.85;;
72439;SDS011;60446;50.752;4.352;2024-02-21T10:52:22;8.45;;;2.92;;
72439;SDS011;60446;50.752;4.352;2024-02-21T10:55:26;7.68;;;4.15;;
72439;SDS011;60446;50.752;4.352;2024-02-21T10:58:16;5.13;;;2.60;;
72439;SDS011;60446;50.752;4.352;2024-02-21T11:00:44;8.48;;;3.92;;
72439;SDS011;60446;50.752;4.352;2024-02-21T11:03:12;7.32;;;4.03;;
72439;SDS011;60446;50.752;4.352;2024-02-21T11:05:40;9.27;;;3.70;;
72439;SDS011;60446;50.752;4.352;2024-02-21T11:08:12;12.65;;;3.13;;
72439;SDS011;60446;50.752;4.352;2024-02-21T11:10:45;6.57;;;3.33;;
72439;SDS011;60446;50.752;4.352;2024-02-21T11:13:13;6.35;;;2.70;;
72439;SDS011;60446;50.752;4.352;2024-02-21T11:15:40;7.80;;;3.70;;
72439;SDS011;60446;50.752;4.352;2024-02-21T11:18:08;9.25;;;3.22;;
72439;SDS011;60446;50.752;4.352;2024-02-21T11:20:36;7.43;;;3.15;;
72439;SDS011;60446;50.752;4.352;2024-02-21T11:23:05;7.90;;;3.20;;
72439;SDS011;60446;50.752;4.352;2024-02-21T11:25:33;9.07;;;3.30;;
72439;SDS011;60446;50.752;4.352;2024-02-21T11:28:04;10.45;;;3.50;;
72439;SDS011;60446;50.752;4.352;2024-02-21T11:30:36;11.48;;;3.53;;
72439;SDS011;60446;50.752;4.352;2024-02-21T11:33:08;7.82;;;3.70;;
72439;SDS011;60446;50.752;4.352;2024-02-21T11:35:36;8.13;;;3.80;;
72439;SDS011;60446;50.752;4.352;2024-02-21T11:38:11;8.35;;;4.38;;
72439;SDS011;60446;50.752;4.352;2024-02-21T11:40:44;7.30;;;3.45;;
72439;SDS011;60446;50.752;4.352;2024-02-21T11:43:13;8.50;;;3.83;;
72439;SDS011;60446;50.752;4.352;2024-02-21T11:45:41;7.50;;;3.13;;
72439;SDS011;60446;50.752;4.352;2024-02-21T11:48:08;7.87;;;3.10;;
72439;SDS011;60446;50.752;4.352;2024-02-21T11:50:37;8.02;;;3.47;;
72439;SDS011;60446;50.752;4.352;2024-02-21T11:53:06;7.07;;;3.15;;
72439;SDS011;60446;50.752;4.352;2024-02-21T11:55:34;7.63;;;3.42;;
72439;SDS011;60446;50.752;4.352;2024-02-21T11:58:01;12.82;;;4.57;;
72439;SDS011;60446;50.752;4.352;2024-02-21T12:00:29;7.73;;;2.87;;
72439;SDS011;60446;50.752;4.352;2024-02-21T12:02:58;9.77;;;3.92;;
72439;SDS011;60446;50.752;4.352;2024-02-21T12:05:29;10.95;;;3.60;;
72439;SDS011;60446;50.752;4.352;2024-02-21T12:07:57;11.00;;;4.25;;
72439;SDS011;60446;50.752;4.352;2024-02-21T12:10:25;7.75;;;3.70;;
72439;SDS011;60446;50.752;4.352;2024-02-21T12:12:54;7.20;;;3.87;;
72439;SDS011;60446;50.752;4.352;2024-02-21T12:15:35;9.20;;;4.13;;
72439;SDS011;60446;50.752;4.352;2024-02-21T12:18:05;7.28;;;3.50;;
72439;SDS011;60446;50.752;4.352;2024-02-21T12:20:32;11.65;;;3.80;;
72439;SDS011;60446;50.752;4.352;2024-02-21T12:23:00;11.93;;;4.03;;
72439;SDS011;60446;50.752;4.352;2024-02-21T12:25:28;10.90;;;3.13;;
72439;SDS011;60446;50.752;4.352;2024-02-21T12:27:55;11.40;;;4.32;;
72439;SDS011;60446;50.752;4.352;2024-02-21T12:30:23;9.27;;;4.15;;
72439;SDS011;60446;50.752;4.352;2024-02-21T12:32:50;7.72;;;4.20;;
72439;SDS011;60446;50.752;4.352;2024-02-21T12:35:18;12.27;;;4.30;;
72439;SDS011;60446;50.752;4.352;2024-02-21T12:37:46;7.63;;;4.50;;
72439;SDS011;60446;50.752;4.352;2024-02-21T12:40:13;9.52;;;4.22;;
72439;SDS011;60446;50.752;4.352;2024-02-21T12:42:41;8.68;;;4.22;;
72439;SDS011;60446;50.752;4.352;2024-02-21T12:45:09;7.25;;;3.50;;
72439;SDS011;60446;50.752;4.352;2024-02-21T12:47:36;10.38;;;3.72;;
72439;SDS011;60446;50.752;4.352;2024-02-21T12:50:04;10.40;;;3.47;;
72439;SDS011;60446;50.752;4.352;2024-02-21T12:52:34;8.32;;;4.18;;
72439;SDS011;60446;50.752;4.352;2024-02-21T12:55:01;7.82;;;4.28;;
72439;SDS011;60446;50.752;4.352;2024-02-21T12:57:29;6.38;;;3.15;;
72439;SDS011;60446;50.752;4.352;2024-02-21T12:59:57;9.10;;;3.70;;
72439;SDS011;60446;50.752;4.352;2024-02-21T13:02:24;12.03;;;3.63;;
72439;SDS011;60446;50.752;4.352;2024-02-21T13:04:52;8.73;;;3.70;;
72439;SDS011;60446;50.752;4.352;2024-02-21T13:07:19;11.25;;;4.10;;
72439;SDS011;60446;50.752;4.352;2024-02-21T13:09:47;7.55;;;3.33;;
72439;SDS011;60446;50.752;4.352;2024-02-21T13:12:14;8.82;;;3.95;;
72439;SDS011;60446;50.752;4.352;2024-02-21T13:14:41;8.90;;;3.30;;
72439;SDS011;60446;50.752;4.352;2024-02-21T13:17:10;9.05;;;3.88;;
72439;SDS011;60446;50.752;4.352;2024-02-21T13:19:38;9.57;;;4.30;;
72439;SDS011;60446;50.752;4.352;2024-02-21T13:22:06;7.80;;;3.30;;
72439;SDS011;60446;50.752;4.352;2024-02-21T13:24:33;10.00;;;4.38;;
72439;SDS011;60446;50.752;4.352;2024-02-21T13:27:00;10.00;;;3.83;;
72439;SDS011;60446;50.752;4.352;2024-02-21T13:29:30;7.40;;;3.55;;
72439;SDS011;60446;50.752;4.352;2024-02-21T13:31:57;8.23;;;3.42;;
72439;SDS011;60446;50.752;4.352;2024-02-21T13:34:25;8.90;;;3.70;;
72439;SDS011;60446;50.752;4.352;2024-02-21T13:36:53;9.55;;;3.97;;
72439;SDS011;60446;50.752;4.352;2024-02-21T13:39:21;7.10;;;3.40;;
72439;SDS011;60446;50.752;4.352;2024-02-21T13:41:48;12.80;;;3.70;;
72439;SDS011;60446;50.752;4.352;2024-02-21T13:44:15;6.75;;;2.97;;
72439;SDS011;60446;50.752;4.352;2024-02-21T13:46:43;7.93;;;3.60;;
72439;SDS011;60446;50.752;4.352;2024-02-21T13:49:10;7.00;;;3.47;;
72439;SDS011;60446;50.752;4.352;2024-02-21T13:51:37;7.63;;;3.13;;
72439;SDS011;60446;50.752;4.352;2024-02-21T13:54:07;9.30;;;3.92;;
72439;SDS011;60446;50.752;4.352;2024-02-21T13:56:36;9.35;;;3.35;;
72439;SDS011;60446;50.752;4.352;2024-02-21T13:59:04;10.50;;;3.53;;
72439;SDS011;60446;50.752;4.352;2024-02-21T14:01:31;11.27;;;4.38;;
72439;SDS011;60446;50.752;4.352;2024-02-21T14:03:59;10.40;;;3.87;;
72439;SDS011;60446;50.752;4.352;2024-02-21T14:06:27;16.33;;;3.83;;
72439;SDS011;60446;50.752;4.352;2024-02-21T14:08:55;8.88;;;4.05;;
72439;SDS011;60446;50.752;4.352;2024-02-21T14:11:22;8.80;;;3.85;;
72439;SDS011;60446;50.752;4.352;2024-02-21T14:13:50;7.30;;;3.70;;
72439;SDS011;60446;50.752;4.352;2024-02-21T14:16:18;9.07;;;3.80;;
72439;SDS011;60446;50.752;4.352;2024-02-21T14:18:45;7.80;;;4.00;;
72439;SDS011;60446;50.752;4.352;2024-02-21T14:21:13;7.97;;;4.05;;
72439;SDS011;60446;50.752;4.352;2024-02-21T14:23:40;10.27;;;4.50;;
72439;SDS011;60446;50.752;4.352;2024-02-21T14:26:08;11.32;;;4.57;;
72439;SDS011;60446;50.752;4.352;2024-02-21T14:28:35;9.13;;;3.77;;
72439;SDS011;60446;50.752;4.352;2024-02-21T14:31:03;8.48;;;3.63;;
72439;SDS011;60446;50.752;4.352;2024-02-21T14:33:32;8.63;;;3.90;;
72439;SDS011;60446;50.752;4.352;2024-02-21T14:36:00;8.25;;;3.30;;
72439;SDS011;60446;50.752;4.352;2024-02-21T14:38:32;12.13;;;4.93;;
72439;SDS011;60446;50.752;4.352;2024-02-21T14:40:59;8.67;;;3.63;;
72439;SDS011;60446;50.752;4.352;2024-02-21T14:43:26;10.70;;;3.67;;
72439;SDS011;60446;50.752;4.352;2024-02-21T14:45:55;12.93;;;3.92;;
72439;SDS011;60446;50.752;4.352;2024-02-21T14:48:22;9.05;;;3.25;;